• Join FlightAware (Why Join?)
  • Login
  • US Flag 
07:27PM EDT


 

Airport Tracker/Info


-or-


 

Live Flight TrackerFlight Track Log ✈ JBU576 ✈ 17-Apr-2012 ✈ KMCO - KSWF

Flight Track Log - Related Links

Times and Time Zones

All times are in EDT time to prevent confusion due to time zone crossing. See the JBU576 flight status page for this flight to view local times or setup timezone preferences in your user account.

Time Position Orientation Groundspeed Altitude Reporting Facility
EDT Latitude Longitude Course Direction KTS MPH feet Rate Location/Type
10:39AM 28.4600 -81.3080 190° South  Level FlightAware Approximate
10:40AM 28.4167 -81.3167 139° Southeast 148 170 800  Level Orlando TRACON
10:41AM 28.3667 -81.2667 106° East 211 243 3,600 1,980 Climbing Orlando TRACON
10:42AM 28.3500 -81.2000 77° East 261 300 5,700 2,400 Climbing Orlando TRACON
10:43AM 28.3667 -81.1167 355° North 277 319 8,200 2,100 Climbing Orlando TRACON
10:45AM 28.5050 -81.1303 342° North 267 307 11,600 2,160 Climbing Jacksonville Center
10:46AM 28.6017 -81.1664 348° North 306 352 14,400 2,580 Climbing Jacksonville Center
10:47AM 28.7022 -81.1908 351° North 341 392 16,800 2,340 Climbing Jacksonville Center
10:48AM 28.8108 -81.2103 351° North 369 425 19,100 2,100 Climbing Jacksonville Center
10:49AM 28.9217 -81.2297 349° North 389 448 21,100 2,100 Climbing Jacksonville Center
10:50AM 29.0347 -81.2539 350° North 401 461 23,300 1,860 Climbing Jacksonville Center
10:51AM 29.1519 -81.2781 352° North 413 475 24,900 1,560 Climbing Jacksonville Center
10:52AM 29.2733 -81.2975 349° North 428 493 26,500 1,500 Climbing Jacksonville Center
10:53AM 29.3967 -81.3242 350° North 440 506 27,900 1,380 Climbing Jacksonville Center
10:54AM 29.5181 -81.3486 350° North 446 513 29,300 1,440 Climbing Jacksonville Center
10:55AM 29.6436 -81.3753 351° North 451 519 30,800 1,260 Climbing Jacksonville Center
10:56AM 29.7692 -81.3994 350° North 451 519 31,900 1,440 Climbing Jacksonville Center
10:57AM 29.8928 -81.4239 351° North 446 513 33,700 1,500 Climbing Jacksonville Center
10:58AM 30.0100 -81.4461 350° North 446 513 34,900 1,140 Climbing Jacksonville Center
10:59AM 30.1292 -81.4708 351° North 441 507 36,000 1,020 Climbing Jacksonville Center
11:00AM 30.2442 -81.4908 353° North 431 496 37,000 480 Climbing Jacksonville Center
11:01AM 30.3656 -81.5083 North 431 496 37,000  Level Jacksonville Center
11:02AM 30.5053 -81.4942 North 443 510 37,000  Level Jacksonville Center
11:03AM 30.6325 -81.4850 North 443 510 37,000  Level Jacksonville Center
11:04AM 30.7556 -81.4758 North 443 510 37,000  Level Jacksonville Center
11:05AM 30.8806 -81.4619 North 443 510 37,000  Level Jacksonville Center
11:06AM 31.0017 -81.4553 19° North 443 510 37,000  Level Jacksonville Center
11:07AM 31.1203 -81.4075 32° Northeast 443 510 37,000  Level Jacksonville Center
11:08AM 31.2300 -81.3281 31° Northeast 456 525 37,000  Level Jacksonville Center
11:09AM 31.3375 -81.2531 31° Northeast 456 525 37,000  Level Jacksonville Center
11:10AM 31.4431 -81.1783 31° Northeast 441 507 37,000  Level Jacksonville Center
11:11AM 31.5547 -81.0981 31° Northeast 450 518 37,000  Level Jacksonville Center
11:12AM 31.6539 -81.0281 32° Northeast 456 525 37,000  Level Jacksonville Center
11:13AM 31.7714 -80.9400 32° Northeast 456 525 37,000  Level Jacksonville Center
11:14AM 31.8686 -80.8694 32° Northeast 456 525 37,000  Level Jacksonville Center
11:15AM 31.9861 -80.7836 32° Northeast 446 513 37,000  Level Jacksonville Center
11:16AM 32.0975 -80.7025 32° Northeast 451 519 37,000  Level Jacksonville Center
11:17AM 32.2025 -80.6264 32° Northeast 451 519 37,000  Level Jacksonville Center
11:18AM 32.3014 -80.5528 20° North 448 516 37,000 120 Level Jacksonville Center
11:19AM 32.4194 -80.5006 16° North 448 516 37,300 540 Climbing Jacksonville Center
11:20AM 32.5481 -80.4578 23° Northeast 438 504 38,100 720 Climbing Jacksonville Center
11:21AM 32.6619 -80.4003 34° Northeast 438 504 38,800 420 Climbing Jacksonville Center
11:22AM 32.7564 -80.3236 34° Northeast 438 504 39,000 60 Climbing Jacksonville Center
11:23AM 32.8569 -80.2442 32° Northeast 438 504 39,000  Level Jacksonville Center
11:24AM 32.9781 -80.1539 36° Northeast 454 522 39,000  Level Jacksonville Center
11:25AM 33.0683 -80.0767 32° Northeast 452 520 39,000  Level Jacksonville Center
11:26AM 33.1772 -79.9964 33° Northeast 452 520 39,000  Level Jacksonville Center
11:27AM 33.2775 -79.9186 33° Northeast 446 513 39,000  Level Jacksonville Center
11:28AM 33.3861 -79.8328 33° Northeast 446 513 39,000  Level Jacksonville Center
11:29AM 33.4886 -79.7522 33° Northeast 451 519 39,000  Level Jacksonville Center
11:30AM 33.5928 -79.6711 35° Northeast 451 519 39,000  Level Jacksonville Center
11:31AM 33.6950 -79.5850 33° Northeast 451 519 39,000  Level Jacksonville Center
11:32AM 33.7992 -79.5036 32° Northeast 446 513 39,000  Level Jacksonville Center
11:33AM 33.9036 -79.4247 33° Northeast 446 513 39,000  Level Jacksonville Center
11:34AM 34.0078 -79.3428 33° Northeast 446 513 39,000  Level Jacksonville Center
11:35AM 34.1117 -79.2608 35° Northeast 446 513 39,000  Level Jacksonville Center
11:37AM 34.3214 -79.0797 31° Northeast 447 514 39,000  Level Washington Center
11:38AM 34.4300 -79.0011 37° Northeast 447 514 39,000  Level Washington Center
11:39AM 34.5286 -78.9094 33° Northeast 447 514 39,000  Level Washington Center
11:40AM 34.6350 -78.8256 34° Northeast 454 522 39,000  Level Washington Center
11:41AM 34.7375 -78.7411 34° Northeast 454 522 39,000  Level Washington Center
11:42AM 34.8419 -78.6567 34° Northeast 454 522 39,000  Level Washington Center
11:43AM 34.9358 -78.5792 35° Northeast 454 522 39,000  Level Washington Center
11:44AM 35.0400 -78.4917 35° Northeast 454 522 39,000  Level Washington Center
11:45AM 35.1425 -78.4039 34° Northeast 454 522 39,000  Level Washington Center
11:46AM 35.2486 -78.3158 34° Northeast 460 529 39,000  Level Washington Center
11:47AM 35.3528 -78.2303 34° Northeast 460 529 39,000  Level Washington Center
11:48AM 35.4592 -78.1419 34° Northeast 455 524 39,000  Level Washington Center
11:49AM 35.5611 -78.0558 33° Northeast 455 524 39,000  Level Washington Center
11:50AM 35.6672 -77.9697 35° Northeast 455 524 39,000  Level Washington Center
11:51AM 35.7711 -77.8806 34° Northeast 450 518 39,000  Level Washington Center
11:52AM 35.8750 -77.7939 34° Northeast 450 518 39,000  Level Washington Center
11:53AM 35.9789 -77.7069 36° Northeast 450 518 39,000  Level Washington Center
11:54AM 36.0806 -77.6147 38° Northeast 450 518 39,000  Level Washington Center
11:55AM 36.1886 -77.5119 39° Northeast 456 525 39,000  Level Washington Center
11:56AM 36.2733 -77.4264 37° Northeast 447 514 39,000  Level Washington Center
11:57AM 36.3750 -77.3306 37° Northeast 444 511 39,000  Level Washington Center
11:58AM 36.4767 -77.2347 37° Northeast 444 511 39,000  Level Washington Center
11:59AM 36.5864 -77.1311 37° Northeast 449 517 39,000  Level Washington Center
12:00PM 36.6878 -77.0372 37° Northeast 449 517 39,000  Level Washington Center
12:01PM 36.7889 -76.9431 35° Northeast 443 510 39,000  Level Washington Center
12:02PM 36.8922 -76.8514 36° Northeast 448 516 39,000  Level Washington Center
12:03PM 36.9933 -76.7594 36° Northeast 453 521 39,000  Level Washington Center
12:04PM 37.0964 -76.6647 36° Northeast 453 521 39,000  Level Washington Center
12:05PM 37.1994 -76.5722 37° Northeast 458 527 39,000  Level Washington Center
12:06PM 37.3022 -76.4744 36° Northeast 458 527 39,000  Level Washington Center
12:07PM 37.3967 -76.3892 35° Northeast 458 527 39,000  Level Washington Center
12:08PM 37.4994 -76.2986 36° Northeast 458 527 39,000  Level Washington Center
12:09PM 37.6044 -76.2025 34° Northeast 458 527 39,000  Level Washington Center
12:10PM 37.7092 -76.1142 39° Northeast 458 527 39,000  Level Washington Center
12:11PM 37.8075 -76.0122 36° Northeast 458 527 39,000  Level Washington Center
12:12PM 37.9119 -75.9156 36° Northeast 458 527 39,000  Level Washington Center
12:13PM 38.0144 -75.8211 36° Northeast 458 527 39,000  Level Washington Center
12:14PM 38.1167 -75.7264 38° Northeast 458 527 39,000  Level Washington Center
12:15PM 38.2189 -75.6261 34° Northeast 458 527 39,000  Level Washington Center
12:16PM 38.3233 -75.5361 22° Northeast 458 527 39,000  Level Washington Center
12:17PM 38.4400 -75.4750 18° North 437 503 39,000  Level Washington Center
12:18PM 38.5586 -75.4244 18° North 443 510 39,000  Level Washington Center
12:19PM 38.6775 -75.3764 28° Northeast 448 516 39,000  Level Washington Center
12:20PM 38.7900 -75.2986 39° Northeast 448 516 39,000  Level Washington Center
12:21PM 38.8917 -75.1942 36° Northeast 448 516 39,000  Level Washington Center
12:22PM 38.9978 -75.0947 37° Northeast 460 529 39,000  Level Washington Center
12:23PM 39.1014 -74.9953 39° Northeast 465 535 39,000  Level Washington Center
12:24PM 39.2008 -74.8897 35° Northeast 465 535 39,000 -360 Level Washington Center
12:25PM 39.3067 -74.7950 37° Northeast 460 529 38,300 -1,200 Descending Washington Center
12:26PM 39.4225 -74.6808 37° Northeast 465 535 36,700 -1,560 Descending Washington Center
12:27PM 39.5278 -74.5772 37° Northeast 465 535 35,300 -1,440 Descending Washington Center
12:28PM 39.6353 -74.4706 37° Northeast 475 547 33,900 -1,500 Descending Washington Center
12:30PM 39.8750 -74.2358 38° Northeast 492 566 30,500 -1,680 Descending New York Center
12:31PM 39.9825 -74.1272 38° Northeast 481 554 28,400 -2,340 Descending New York Center
12:32PM 40.0919 -74.0161 37° Northeast 481 554 25,800 -1,740 Descending New York Center
12:33PM 40.1992 -73.9097 37° Northeast 481 554 25,000 -420 Descending New York Center
12:34PM 40.3039 -73.8056 38° Northeast 481 554 25,000  Level New York Center
12:35PM 40.4067 -73.6983 38° Northeast 476 548 25,000 -840 Level New York Center
12:37PM 40.6200 -73.4817 38° Northeast 532 612 22,600 -1,860 Descending Boston Center
12:38PM 40.7208 -73.3794 38° Northeast 483 556 19,800 -1,800 Descending Boston Center
12:39PM 40.8156 -73.2819 North 449 517 19,000 -480 Descending Boston Center
12:40PM 40.9322 -73.2642 343° North 414 476 18,900 -1,440 Descending Boston Center
12:41PM 41.0361 -73.3069 342° North 385 443 16,200 -2,700 Descending Boston Center
12:42PM 41.1275 -73.3467 345° North 377 434 13,500 -2,580 Descending Boston Center
12:43PM 41.2294 -73.3839 342° North 360 414 11,100 -1,260 Descending Boston Center
12:44PM 41.3083 -73.4183 344° North 337 388 11,000 -60 Descending Boston Center
12:45PM 41.4017 -73.4531 343° North 322 371 11,000  Level Boston Center
12:46PM 41.4786 -73.4847 343° North 322 371 11,000 -1,020 Level Boston Center
12:47PM 41.5636 -73.5194 344° North 304 350 9,000 -1,500 Descending Boston Center
12:49PM 41.7333 -73.5833 270° West 229 264 5,900 -1,500 Descending New York TRACON
12:50PM 41.7333 -73.6500 225° Southwest 218 251 4,000 -1,200 Descending New York TRACON
12:51PM 41.6833 -73.7167 228° Southwest 215 247 3,600 -780 Descending New York TRACON
12:52PM 41.6500 -73.7667 236° Southwest 220 253 2,500 -600 Descending New York TRACON
12:53PM 41.6167 -73.8333 217° Southwest 218 251 2,500  Level New York TRACON
12:54PM 41.5667 -73.8833 236° Southwest 222 255 2,500  Level New York TRACON
12:55PM 41.5333 -73.9500 246° West 223 257 2,500 -360 Level New York TRACON
12:56PM 41.5167 -74.0000 270° West 146 168 1,800 -780 Descending New York TRACON
12:57PM 41.5167 -74.0667 270° West 140 161 1,000 -840 Descending New York TRACON